sensor_id;sensor_type;location;lat;lon;timestamp;P1;durP1;ratioP1;P2;durP2;ratioP2
82396;SDS011;72034;51.426;7.534;2024-01-15T05:02:51;25.13;;;16.63;;
82396;SDS011;72034;51.426;7.534;2024-01-15T05:14:43;22.13;;;13.33;;
82396;SDS011;72034;51.426;7.534;2024-01-15T05:17:09;25.77;;;15.57;;
82396;SDS011;72034;51.426;7.534;2024-01-15T05:19:34;28.90;;;16.07;;
82396;SDS011;72034;51.426;7.534;2024-01-15T05:22:00;28.07;;;16.73;;
82396;SDS011;72034;51.426;7.534;2024-01-15T05:24:31;28.97;;;15.63;;
82396;SDS011;72034;51.426;7.534;2024-01-15T05:26:59;24.10;;;15.43;;
82396;SDS011;72034;51.426;7.534;2024-01-15T05:29:30;30.33;;;14.27;;
82396;SDS011;72034;51.426;7.534;2024-01-15T05:31:55;22.93;;;15.40;;
82396;SDS011;72034;51.426;7.534;2024-01-15T05:34:20;26.10;;;14.90;;
82396;SDS011;72034;51.426;7.534;2024-01-15T05:36:46;25.77;;;15.60;;
82396;SDS011;72034;51.426;7.534;2024-01-15T05:39:12;25.37;;;16.37;;
82396;SDS011;72034;51.426;7.534;2024-01-15T05:41:38;25.03;;;14.93;;
82396;SDS011;72034;51.426;7.534;2024-01-15T05:44:03;29.90;;;15.37;;
82396;SDS011;72034;51.426;7.534;2024-01-15T05:46:29;25.50;;;14.90;;
82396;SDS011;72034;51.426;7.534;2024-01-15T05:48:54;24.63;;;15.70;;
82396;SDS011;72034;51.426;7.534;2024-01-15T05:51:19;28.20;;;15.60;;
82396;SDS011;72034;51.426;7.534;2024-01-15T05:53:44;23.43;;;15.47;;
82396;SDS011;72034;51.426;7.534;2024-01-15T05:56:10;27.57;;;14.70;;
82396;SDS011;72034;51.426;7.534;2024-01-15T05:58:35;22.40;;;15.70;;
82396;SDS011;72034;51.426;7.534;2024-01-15T06:01:01;23.60;;;15.60;;
82396;SDS011;72034;51.426;7.534;2024-01-15T06:03:26;20.00;;;14.43;;
82396;SDS011;72034;51.426;7.534;2024-01-15T06:05:52;20.13;;;14.73;;
82396;SDS011;72034;51.426;7.534;2024-01-15T06:08:18;25.30;;;15.93;;
82396;SDS011;72034;51.426;7.534;2024-01-15T06:10:46;21.73;;;14.17;;
82396;SDS011;72034;51.426;7.534;2024-01-15T06:13:11;24.63;;;15.67;;
82396;SDS011;72034;51.426;7.534;2024-01-15T06:15:38;24.00;;;14.87;;
82396;SDS011;72034;51.426;7.534;2024-01-15T06:18:04;19.90;;;14.00;;
82396;SDS011;72034;51.426;7.534;2024-01-15T06:20:29;24.73;;;13.70;;
82396;SDS011;72034;51.426;7.534;2024-01-15T06:22:55;20.33;;;13.53;;
82396;SDS011;72034;51.426;7.534;2024-01-15T06:25:20;24.80;;;14.77;;
82396;SDS011;72034;51.426;7.534;2024-01-15T06:27:45;22.77;;;14.07;;
82396;SDS011;72034;51.426;7.534;2024-01-15T06:30:11;23.43;;;13.37;;
82396;SDS011;72034;51.426;7.534;2024-01-15T06:32:37;24.00;;;13.83;;
82396;SDS011;72034;51.426;7.534;2024-01-15T06:35:02;21.97;;;14.37;;
82396;SDS011;72034;51.426;7.534;2024-01-15T06:37:30;19.23;;;14.43;;
82396;SDS011;72034;51.426;7.534;2024-01-15T06:40:03;22.27;;;13.00;;
82396;SDS011;72034;51.426;7.534;2024-01-15T06:42:28;27.97;;;13.97;;
82396;SDS011;72034;51.426;7.534;2024-01-15T06:44:53;26.37;;;13.90;;
82396;SDS011;72034;51.426;7.534;2024-01-15T06:47:19;21.30;;;13.83;;
82396;SDS011;72034;51.426;7.534;2024-01-15T06:49:44;20.57;;;14.17;;
82396;SDS011;72034;51.426;7.534;2024-01-15T06:52:09;19.47;;;11.40;;
82396;SDS011;72034;51.426;7.534;2024-01-15T06:54:35;22.50;;;14.33;;
82396;SDS011;72034;51.426;7.534;2024-01-15T06:57:00;21.37;;;13.10;;
82396;SDS011;72034;51.426;7.534;2024-01-15T06:59:25;24.10;;;14.13;;
82396;SDS011;72034;51.426;7.534;2024-01-15T07:01:50;21.97;;;13.97;;
82396;SDS011;72034;51.426;7.534;2024-01-15T07:04:16;21.57;;;13.93;;
82396;SDS011;72034;51.426;7.534;2024-01-15T07:06:41;20.83;;;14.13;;
82396;SDS011;72034;51.426;7.534;2024-01-15T07:09:06;19.93;;;12.60;;
82396;SDS011;72034;51.426;7.534;2024-01-15T07:11:33;19.83;;;13.33;;
82396;SDS011;72034;51.426;7.534;2024-01-15T07:13:58;21.47;;;13.17;;
82396;SDS011;72034;51.426;7.534;2024-01-15T07:16:23;18.43;;;13.60;;
82396;SDS011;72034;51.426;7.534;2024-01-15T07:18:49;24.57;;;15.57;;
82396;SDS011;72034;51.426;7.534;2024-01-15T07:21:14;19.20;;;14.17;;
82396;SDS011;72034;51.426;7.534;2024-01-15T07:23:40;19.40;;;12.90;;
82396;SDS011;72034;51.426;7.534;2024-01-15T07:26:05;21.17;;;13.57;;
82396;SDS011;72034;51.426;7.534;2024-01-15T07:28:30;21.97;;;14.40;;
82396;SDS011;72034;51.426;7.534;2024-01-15T07:30:56;17.77;;;14.80;;
82396;SDS011;72034;51.426;7.534;2024-01-15T07:33:22;18.60;;;14.53;;
82396;SDS011;72034;51.426;7.534;2024-01-15T07:35:47;20.47;;;14.33;;
82396;SDS011;72034;51.426;7.534;2024-01-15T07:38:12;23.13;;;14.93;;
82396;SDS011;72034;51.426;7.534;2024-01-15T07:40:38;22.87;;;15.33;;
82396;SDS011;72034;51.426;7.534;2024-01-15T07:43:03;21.60;;;15.20;;
82396;SDS011;72034;51.426;7.534;2024-01-15T07:45:28;22.17;;;14.63;;
82396;SDS011;72034;51.426;7.534;2024-01-15T07:47:55;23.13;;;15.00;;
82396;SDS011;72034;51.426;7.534;2024-01-15T07:50:20;21.70;;;15.67;;
82396;SDS011;72034;51.426;7.534;2024-01-15T07:52:45;17.73;;;13.73;;
82396;SDS011;72034;51.426;7.534;2024-01-15T07:55:10;21.13;;;13.23;;
82396;SDS011;72034;51.426;7.534;2024-01-15T07:57:36;17.47;;;13.00;;
82396;SDS011;72034;51.426;7.534;2024-01-15T08:00:01;15.20;;;12.40;;
82396;SDS011;72034;51.426;7.534;2024-01-15T08:02:29;16.00;;;12.93;;
82396;SDS011;72034;51.426;7.534;2024-01-15T08:04:55;18.77;;;12.60;;
82396;SDS011;72034;51.426;7.534;2024-01-15T08:07:20;15.10;;;12.60;;
82396;SDS011;72034;51.426;7.534;2024-01-15T08:09:45;17.17;;;12.53;;
82396;SDS011;72034;51.426;7.534;2024-01-15T08:12:12;17.57;;;12.40;;
82396;SDS011;72034;51.426;7.534;2024-01-15T08:14:38;17.37;;;12.53;;
82396;SDS011;72034;51.426;7.534;2024-01-15T08:17:03;19.43;;;11.10;;
82396;SDS011;72034;51.426;7.534;2024-01-15T08:19:29;15.83;;;11.80;;
82396;SDS011;72034;51.426;7.534;2024-01-15T08:21:54;13.00;;;11.03;;
82396;SDS011;72034;51.426;7.534;2024-01-15T08:24:19;14.70;;;12.67;;
82396;SDS011;72034;51.426;7.534;2024-01-15T08:26:45;14.73;;;13.20;;
82396;SDS011;72034;51.426;7.534;2024-01-15T08:29:10;15.30;;;12.67;;
82396;SDS011;72034;51.426;7.534;2024-01-15T08:31:35;18.20;;;12.70;;
82396;SDS011;72034;51.426;7.534;2024-01-15T08:34:01;16.00;;;11.77;;
82396;SDS011;72034;51.426;7.534;2024-01-15T08:36:26;17.57;;;12.43;;
82396;SDS011;72034;51.426;7.534;2024-01-15T08:38:53;14.37;;;11.93;;
82396;SDS011;72034;51.426;7.534;2024-01-15T08:41:18;13.73;;;11.33;;
82396;SDS011;72034;51.426;7.534;2024-01-15T08:43:43;16.17;;;11.80;;
82396;SDS011;72034;51.426;7.534;2024-01-15T08:46:09;16.20;;;11.70;;
82396;SDS011;72034;51.426;7.534;2024-01-15T08:48:34;15.43;;;10.87;;
82396;SDS011;72034;51.426;7.534;2024-01-15T08:50:59;12.57;;;10.67;;
82396;SDS011;72034;51.426;7.534;2024-01-15T08:53:24;12.27;;;10.57;;
82396;SDS011;72034;51.426;7.534;2024-01-15T08:55:50;12.57;;;9.07;;
82396;SDS011;72034;51.426;7.534;2024-01-15T08:58:16;12.90;;;9.13;;
82396;SDS011;72034;51.426;7.534;2024-01-15T09:00:41;9.70;;;8.07;;
82396;SDS011;72034;51.426;7.534;2024-01-15T09:03:07;10.67;;;8.60;;
82396;SDS011;72034;51.426;7.534;2024-01-15T09:05:33;8.53;;;7.40;;
82396;SDS011;72034;51.426;7.534;2024-01-15T09:07:59;11.00;;;8.67;;
82396;SDS011;72034;51.426;7.534;2024-01-15T09:10:24;9.97;;;8.23;;
82396;SDS011;72034;51.426;7.534;2024-01-15T09:12:49;9.23;;;7.53;;
82396;SDS011;72034;51.426;7.534;2024-01-15T09:15:15;9.00;;;8.07;;
82396;SDS011;72034;51.426;7.534;2024-01-15T09:17:40;10.00;;;8.00;;
82396;SDS011;72034;51.426;7.534;2024-01-15T09:20:07;7.97;;;7.00;;
82396;SDS011;72034;51.426;7.534;2024-01-15T09:22:33;9.17;;;7.67;;
82396;SDS011;72034;51.426;7.534;2024-01-15T09:24:58;8.10;;;7.00;;
82396;SDS011;72034;51.426;7.534;2024-01-15T09:27:24;8.07;;;7.27;;
82396;SDS011;72034;51.426;7.534;2024-01-15T09:29:51;8.70;;;7.40;;
82396;SDS011;72034;51.426;7.534;2024-01-15T09:32:16;8.83;;;7.93;;
82396;SDS011;72034;51.426;7.534;2024-01-15T09:34:42;8.80;;;7.93;;
82396;SDS011;72034;51.426;7.534;2024-01-15T09:37:07;8.53;;;7.63;;
82396;SDS011;72034;51.426;7.534;2024-01-15T09:39:32;11.27;;;8.93;;
82396;SDS011;72034;51.426;7.534;2024-01-15T09:41:58;9.97;;;8.07;;
82396;SDS011;72034;51.426;7.534;2024-01-15T09:44:24;10.70;;;8.90;;
82396;SDS011;72034;51.426;7.534;2024-01-15T09:46:51;9.23;;;8.00;;
82396;SDS011;72034;51.426;7.534;2024-01-15T09:49:17;10.70;;;9.50;;
82396;SDS011;72034;51.426;7.534;2024-01-15T09:51:42;10.00;;;8.90;;
82396;SDS011;72034;51.426;7.534;2024-01-15T09:54:08;10.00;;;9.00;;
82396;SDS011;72034;51.426;7.534;2024-01-15T09:56:34;13.83;;;9.13;;
82396;SDS011;72034;51.426;7.534;2024-01-15T09:59:00;10.27;;;9.27;;
82396;SDS011;72034;51.426;7.534;2024-01-15T10:01:25;10.33;;;9.33;;
82396;SDS011;72034;51.426;7.534;2024-01-15T10:03:51;10.23;;;9.13;;
82396;SDS011;72034;51.426;7.534;2024-01-15T10:06:18;9.87;;;8.23;;
82396;SDS011;72034;51.426;7.534;2024-01-15T10:08:47;10.33;;;9.07;;
82396;SDS011;72034;51.426;7.534;2024-01-15T10:11:13;10.67;;;9.60;;
82396;SDS011;72034;51.426;7.534;2024-01-15T10:13:38;10.77;;;8.40;;
82396;SDS011;72034;51.426;7.534;2024-01-15T10:16:04;8.57;;;7.67;;
82396;SDS011;72034;51.426;7.534;2024-01-15T10:18:29;9.40;;;7.60;;
82396;SDS011;72034;51.426;7.534;2024-01-15T10:20:55;9.10;;;7.17;;
82396;SDS011;72034;51.426;7.534;2024-01-15T10:23:20;10.23;;;7.37;;
82396;SDS011;72034;51.426;7.534;2024-01-15T10:25:46;7.23;;;6.53;;
82396;SDS011;72034;51.426;7.534;2024-01-15T10:28:13;8.20;;;6.57;;
82396;SDS011;72034;51.426;7.534;2024-01-15T10:30:38;7.57;;;6.37;;
82396;SDS011;72034;51.426;7.534;2024-01-15T10:33:04;6.73;;;6.10;;
82396;SDS011;72034;51.426;7.534;2024-01-15T10:35:30;7.53;;;6.20;;
82396;SDS011;72034;51.426;7.534;2024-01-15T10:37:56;7.63;;;6.53;;
82396;SDS011;72034;51.426;7.534;2024-01-15T10:40:22;7.57;;;6.77;;
82396;SDS011;72034;51.426;7.534;2024-01-15T10:42:47;7.30;;;6.40;;
82396;SDS011;72034;51.426;7.534;2024-01-15T10:45:13;10.17;;;6.33;;
82396;SDS011;72034;51.426;7.534;2024-01-15T10:47:39;7.60;;;5.57;;
82396;SDS011;72034;51.426;7.534;2024-01-15T10:50:05;7.20;;;6.50;;
82396;SDS011;72034;51.426;7.534;2024-01-15T10:52:33;6.50;;;5.77;;
82396;SDS011;72034;51.426;7.534;2024-01-15T10:54:59;7.10;;;6.30;;
82396;SDS011;72034;51.426;7.534;2024-01-15T10:57:25;8.53;;;6.53;;
82396;SDS011;72034;51.426;7.534;2024-01-15T10:59:51;13.27;;;7.57;;
82396;SDS011;72034;51.426;7.534;2024-01-15T11:02:16;21.40;;;8.60;;
82396;SDS011;72034;51.426;7.534;2024-01-15T11:04:42;12.53;;;7.80;;
82396;SDS011;72034;51.426;7.534;2024-01-15T11:07:07;9.70;;;7.17;;
82396;SDS011;72034;51.426;7.534;2024-01-15T11:09:32;9.17;;;6.87;;
82396;SDS011;72034;51.426;7.534;2024-01-15T11:12:08;8.67;;;5.63;;
82396;SDS011;72034;51.426;7.534;2024-01-15T11:17:00;7.70;;;6.47;;
82396;SDS011;72034;51.426;7.534;2024-01-15T11:19:27;7.00;;;6.30;;
82396;SDS011;72034;51.426;7.534;2024-01-15T11:22:01;8.57;;;5.90;;
82396;SDS011;72034;51.426;7.534;2024-01-15T11:24:33;8.93;;;6.33;;
82396;SDS011;72034;51.426;7.534;2024-01-15T11:27:02;7.33;;;5.87;;
82396;SDS011;72034;51.426;7.534;2024-01-15T11:37:17;8.53;;;5.90;;
82396;SDS011;72034;51.426;7.534;2024-01-15T11:39:43;8.20;;;6.73;;
82396;SDS011;72034;51.426;7.534;2024-01-15T11:42:09;7.87;;;7.00;;
82396;SDS011;72034;51.426;7.534;2024-01-15T11:44:36;7.70;;;6.50;;
82396;SDS011;72034;51.426;7.534;2024-01-15T11:47:02;10.23;;;6.90;;
82396;SDS011;72034;51.426;7.534;2024-01-15T11:52:39;9.80;;;7.00;;
82396;SDS011;72034;51.426;7.534;2024-01-15T11:55:19;9.57;;;6.70;;
82396;SDS011;72034;51.426;7.534;2024-01-15T11:57:51;8.70;;;6.57;;
82396;SDS011;72034;51.426;7.534;2024-01-15T12:00:19;6.97;;;6.27;;
82396;SDS011;72034;51.426;7.534;2024-01-15T12:02:46;7.43;;;5.93;;
82396;SDS011;72034;51.426;7.534;2024-01-15T12:05:12;7.90;;;6.60;;
82396;SDS011;72034;51.426;7.534;2024-01-15T12:07:42;8.30;;;5.37;;
82396;SDS011;72034;51.426;7.534;2024-01-15T12:10:14;8.27;;;5.80;;
82396;SDS011;72034;51.426;7.534;2024-01-15T12:12:47;10.07;;;5.90;;
82396;SDS011;72034;51.426;7.534;2024-01-15T12:15:27;6.40;;;4.57;;
82396;SDS011;72034;51.426;7.534;2024-01-15T12:17:57;10.83;;;5.00;;
82396;SDS011;72034;51.426;7.534;2024-01-15T12:20:27;5.60;;;4.10;;
82396;SDS011;72034;51.426;7.534;2024-01-15T12:22:53;8.27;;;4.80;;
82396;SDS011;72034;51.426;7.534;2024-01-15T12:25:20;6.47;;;5.00;;
82396;SDS011;72034;51.426;7.534;2024-01-15T12:27:45;7.83;;;4.90;;
82396;SDS011;72034;51.426;7.534;2024-01-15T12:30:11;8.13;;;4.83;;
82396;SDS011;72034;51.426;7.534;2024-01-15T12:32:37;8.70;;;5.43;;
82396;SDS011;72034;51.426;7.534;2024-01-15T12:35:02;7.57;;;5.50;;
82396;SDS011;72034;51.426;7.534;2024-01-15T12:37:30;6.73;;;5.60;;
82396;SDS011;72034;51.426;7.534;2024-01-15T12:39:55;11.13;;;6.07;;
82396;SDS011;72034;51.426;7.534;2024-01-15T12:42:21;8.10;;;5.77;;
82396;SDS011;72034;51.426;7.534;2024-01-15T12:44:46;7.77;;;5.80;;
82396;SDS011;72034;51.426;7.534;2024-01-15T12:47:11;8.77;;;6.30;;
82396;SDS011;72034;51.426;7.534;2024-01-15T12:49:37;10.17;;;6.20;;
82396;SDS011;72034;51.426;7.534;2024-01-15T12:52:07;8.87;;;6.43;;
82396;SDS011;72034;51.426;7.534;2024-01-15T12:54:33;11.23;;;7.50;;
82396;SDS011;72034;51.426;7.534;2024-01-15T12:56:59;9.53;;;7.50;;
82396;SDS011;72034;51.426;7.534;2024-01-15T12:59:24;12.90;;;8.73;;
82396;SDS011;72034;51.426;7.534;2024-01-15T13:01:49;8.90;;;8.10;;
82396;SDS011;72034;51.426;7.534;2024-01-15T13:04:33;13.37;;;7.37;;
82396;SDS011;72034;51.426;7.534;2024-01-15T13:06:58;9.90;;;7.90;;
82396;SDS011;72034;51.426;7.534;2024-01-15T13:09:23;7.60;;;6.50;;
82396;SDS011;72034;51.426;7.534;2024-01-15T13:11:49;11.60;;;7.27;;
82396;SDS011;72034;51.426;7.534;2024-01-15T13:14:15;7.33;;;6.13;;
82396;SDS011;72034;51.426;7.534;2024-01-15T13:16:40;9.07;;;6.10;;
82396;SDS011;72034;51.426;7.534;2024-01-15T13:19:07;9.57;;;6.60;;
82396;SDS011;72034;51.426;7.534;2024-01-15T13:21:33;10.30;;;5.83;;
82396;SDS011;72034;51.426;7.534;2024-01-15T13:23:58;10.40;;;7.07;;
82396;SDS011;72034;51.426;7.534;2024-01-15T13:26:24;6.93;;;5.87;;
82396;SDS011;72034;51.426;7.534;2024-01-15T13:28:49;10.47;;;6.63;;
82396;SDS011;72034;51.426;7.534;2024-01-15T13:31:15;8.00;;;6.50;;
82396;SDS011;72034;51.426;7.534;2024-01-15T13:33:40;9.90;;;6.27;;
82396;SDS011;72034;51.426;7.534;2024-01-15T13:36:05;6.43;;;5.83;;
82396;SDS011;72034;51.426;7.534;2024-01-15T13:38:35;7.93;;;5.90;;
82396;SDS011;72034;51.426;7.534;2024-01-15T13:41:02;7.33;;;5.50;;
82396;SDS011;72034;51.426;7.534;2024-01-15T13:43:27;7.73;;;5.50;;
82396;SDS011;72034;51.426;7.534;2024-01-15T13:45:53;6.57;;;5.97;;
82396;SDS011;72034;51.426;7.534;2024-01-15T13:48:19;11.83;;;7.13;;
82396;SDS011;72034;51.426;7.534;2024-01-15T13:50:44;8.07;;;6.87;;
82396;SDS011;72034;51.426;7.534;2024-01-15T13:53:10;9.27;;;6.27;;
82396;SDS011;72034;51.426;7.534;2024-01-15T13:55:35;10.57;;;6.77;;
82396;SDS011;72034;51.426;7.534;2024-01-15T13:58:00;9.50;;;7.57;;
82396;SDS011;72034;51.426;7.534;2024-01-15T14:00:28;8.60;;;7.60;;
82396;SDS011;72034;51.426;7.534;2024-01-15T14:02:54;8.73;;;7.27;;
82396;SDS011;72034;51.426;7.534;2024-01-15T14:05:19;10.43;;;6.90;;
82396;SDS011;72034;51.426;7.534;2024-01-15T14:07:45;11.87;;;7.63;;
82396;SDS011;72034;51.426;7.534;2024-01-15T14:10:10;8.87;;;6.50;;
82396;SDS011;72034;51.426;7.534;2024-01-15T14:12:35;10.33;;;7.10;;
82396;SDS011;72034;51.426;7.534;2024-01-15T14:15:04;14.37;;;7.37;;
82396;SDS011;72034;51.426;7.534;2024-01-15T14:17:30;9.60;;;7.73;;
82396;SDS011;72034;51.426;7.534;2024-01-15T14:19:56;10.67;;;7.23;;
82396;SDS011;72034;51.426;7.534;2024-01-15T14:22:21;10.80;;;7.60;;
82396;SDS011;72034;51.426;7.534;2024-01-15T14:24:47;9.73;;;7.50;;
82396;SDS011;72034;51.426;7.534;2024-01-15T14:27:13;7.90;;;7.10;;
82396;SDS011;72034;51.426;7.534;2024-01-15T14:29:38;11.53;;;7.07;;
82396;SDS011;72034;51.426;7.534;2024-01-15T14:32:04;10.73;;;8.00;;
82396;SDS011;72034;51.426;7.534;2024-01-15T14:34:30;11.40;;;8.30;;
82396;SDS011;72034;51.426;7.534;2024-01-15T14:36:55;12.17;;;8.30;;
82396;SDS011;72034;51.426;7.534;2024-01-15T14:39:24;10.77;;;8.93;;
82396;SDS011;72034;51.426;7.534;2024-01-15T14:41:50;13.47;;;7.33;;
82396;SDS011;72034;51.426;7.534;2024-01-15T14:44:16;10.83;;;7.83;;
82396;SDS011;72034;51.426;7.534;2024-01-15T14:46:41;9.67;;;7.03;;
82396;SDS011;72034;51.426;7.534;2024-01-15T14:49:07;10.40;;;8.10;;
82396;SDS011;72034;51.426;7.534;2024-01-15T14:51:32;10.33;;;8.13;;
82396;SDS011;72034;51.426;7.534;2024-01-15T14:53:57;11.93;;;8.67;;
82396;SDS011;72034;51.426;7.534;2024-01-15T14:56:23;12.37;;;8.80;;
82396;SDS011;72034;51.426;7.534;2024-01-15T14:58:48;11.37;;;7.17;;
82396;SDS011;72034;51.426;7.534;2024-01-15T15:01:14;10.53;;;8.10;;
82396;SDS011;72034;51.426;7.534;2024-01-15T15:03:39;16.50;;;8.47;;
82396;SDS011;72034;51.426;7.534;2024-01-15T15:06:04;13.17;;;9.50;;
82396;SDS011;72034;51.426;7.534;2024-01-15T15:08:32;10.93;;;8.83;;
82396;SDS011;72034;51.426;7.534;2024-01-15T15:10:57;11.57;;;8.67;;
82396;SDS011;72034;51.426;7.534;2024-01-15T15:13:22;9.93;;;8.73;;
82396;SDS011;72034;51.426;7.534;2024-01-15T15:15:48;14.73;;;8.77;;
82396;SDS011;72034;51.426;7.534;2024-01-15T15:18:13;10.77;;;8.17;;
82396;SDS011;72034;51.426;7.534;2024-01-15T15:20:39;16.27;;;8.97;;
82396;SDS011;72034;51.426;7.534;2024-01-15T15:23:04;11.53;;;7.73;;
82396;SDS011;72034;51.426;7.534;2024-01-15T15:25:33;13.80;;;8.63;;
82396;SDS011;72034;51.426;7.534;2024-01-15T15:27:58;12.47;;;8.30;;
82396;SDS011;72034;51.426;7.534;2024-01-15T15:30:23;10.20;;;8.27;;
82396;SDS011;72034;51.426;7.534;2024-01-15T15:32:48;14.33;;;8.80;;
82396;SDS011;72034;51.426;7.534;2024-01-15T15:35:14;10.00;;;8.47;;
82396;SDS011;72034;51.426;7.534;2024-01-15T15:37:39;11.07;;;8.73;;
82396;SDS011;72034;51.426;7.534;2024-01-15T15:40:04;15.33;;;8.47;;
82396;SDS011;72034;51.426;7.534;2024-01-15T15:42:33;9.93;;;8.80;;
82396;SDS011;72034;51.426;7.534;2024-01-15T15:44:59;13.83;;;9.17;;
82396;SDS011;72034;51.426;7.534;2024-01-15T15:47:24;9.83;;;7.67;;
82396;SDS011;72034;51.426;7.534;2024-01-15T15:49:50;12.93;;;8.43;;
82396;SDS011;72034;51.426;7.534;2024-01-15T15:52:15;10.10;;;8.60;;
82396;SDS011;72034;51.426;7.534;2024-01-15T15:54:40;11.10;;;8.20;;
82396;SDS011;72034;51.426;7.534;2024-01-15T15:57:05;10.60;;;8.00;;
82396;SDS011;72034;51.426;7.534;2024-01-15T15:59:31;10.97;;;7.73;;
82396;SDS011;72034;51.426;7.534;2024-01-15T16:04:39;10.43;;;7.20;;
82396;SDS011;72034;51.426;7.534;2024-01-15T16:07:30;10.47;;;6.90;;
82396;SDS011;72034;51.426;7.534;2024-01-15T16:09:59;11.00;;;7.47;;
82396;SDS011;72034;51.426;7.534;2024-01-15T16:12:46;11.70;;;6.87;;
82396;SDS011;72034;51.426;7.534;2024-01-15T16:15:20;10.27;;;7.40;;
82396;SDS011;72034;51.426;7.534;2024-01-15T16:24:13;7.60;;;6.43;;
82396;SDS011;72034;51.426;7.534;2024-01-15T16:27:11;9.83;;;7.20;;
82396;SDS011;72034;51.426;7.534;2024-01-15T16:30:26;11.70;;;7.13;;
82396;SDS011;72034;51.426;7.534;2024-01-15T16:39:49;13.33;;;7.37;;
82396;SDS011;72034;51.426;7.534;2024-01-15T16:42:24;10.63;;;7.17;;
82396;SDS011;72034;51.426;7.534;2024-01-15T16:45:30;12.67;;;6.63;;
82396;SDS011;72034;51.426;7.534;2024-01-15T16:48:01;10.43;;;7.33;;
82396;SDS011;72034;51.426;7.534;2024-01-15T16:51:49;10.63;;;7.67;;
82396;SDS011;72034;51.426;7.534;2024-01-15T16:54:23;9.83;;;7.57;;
82396;SDS011;72034;51.426;7.534;2024-01-15T17:00:25;13.57;;;8.83;;
82396;SDS011;72034;51.426;7.534;2024-01-15T17:03:03;14.03;;;9.10;;
82396;SDS011;72034;51.426;7.534;2024-01-15T17:05:41;12.83;;;7.57;;
82396;SDS011;72034;51.426;7.534;2024-01-15T17:08:18;18.50;;;8.80;;
82396;SDS011;72034;51.426;7.534;2024-01-15T17:14:45;14.83;;;8.10;;
82396;SDS011;72034;51.426;7.534;2024-01-15T17:20:41;10.13;;;8.30;;
82396;SDS011;72034;51.426;7.534;2024-01-15T17:26:59;11.10;;;7.80;;
82396;SDS011;72034;51.426;7.534;2024-01-15T17:29:47;12.53;;;8.00;;
82396;SDS011;72034;51.426;7.534;2024-01-15T17:32:23;14.97;;;7.57;;
82396;SDS011;72034;51.426;7.534;2024-01-15T17:34:56;16.30;;;9.10;;
82396;SDS011;72034;51.426;7.534;2024-01-15T17:37:22;15.30;;;10.33;;
82396;SDS011;72034;51.426;7.534;2024-01-15T17:43:09;11.17;;;7.13;;
82396;SDS011;72034;51.426;7.534;2024-01-15T17:45:35;13.53;;;6.77;;
82396;SDS011;72034;51.426;7.534;2024-01-15T17:51:22;12.53;;;6.80;;
82396;SDS011;72034;51.426;7.534;2024-01-15T17:53:50;12.70;;;7.27;;
82396;SDS011;72034;51.426;7.534;2024-01-15T17:56:18;10.83;;;7.30;;
82396;SDS011;72034;51.426;7.534;2024-01-15T17:59:32;16.83;;;8.37;;
82396;SDS011;72034;51.426;7.534;2024-01-15T18:02:01;13.57;;;9.07;;
82396;SDS011;72034;51.426;7.534;2024-01-15T18:04:31;15.70;;;9.37;;
82396;SDS011;72034;51.426;7.534;2024-01-15T18:07:15;15.60;;;11.17;;
82396;SDS011;72034;51.426;7.534;2024-01-15T18:09:44;18.80;;;11.37;;
82396;SDS011;72034;51.426;7.534;2024-01-15T18:15:03;16.80;;;11.10;;
82396;SDS011;72034;51.426;7.534;2024-01-15T18:17:31;15.40;;;11.60;;
82396;SDS011;72034;51.426;7.534;2024-01-15T18:20:20;16.93;;;11.37;;
82396;SDS011;72034;51.426;7.534;2024-01-15T18:22:54;22.10;;;12.00;;
82396;SDS011;72034;51.426;7.534;2024-01-15T18:25:32;21.37;;;11.73;;
82396;SDS011;72034;51.426;7.534;2024-01-15T18:27:59;20.13;;;12.87;;
82396;SDS011;72034;51.426;7.534;2024-01-15T18:30:25;21.57;;;13.00;;
82396;SDS011;72034;51.426;7.534;2024-01-15T18:32:51;17.30;;;12.30;;
82396;SDS011;72034;51.426;7.534;2024-01-15T18:35:16;15.70;;;11.57;;
82396;SDS011;72034;51.426;7.534;2024-01-15T18:37:43;18.77;;;12.77;;
82396;SDS011;72034;51.426;7.534;2024-01-15T18:40:10;20.57;;;12.10;;
82396;SDS011;72034;51.426;7.534;2024-01-15T18:42:35;19.27;;;12.33;;
82396;SDS011;72034;51.426;7.534;2024-01-15T18:45:00;14.97;;;10.53;;
82396;SDS011;72034;51.426;7.534;2024-01-15T18:48:26;16.17;;;11.10;;
82396;SDS011;72034;51.426;7.534;2024-01-15T18:50:31;16.43;;;10.77;;
82396;SDS011;72034;51.426;7.534;2024-01-15T18:59:15;13.97;;;10.80;;
82396;SDS011;72034;51.426;7.534;2024-01-15T19:01:46;18.93;;;12.10;;
82396;SDS011;72034;51.426;7.534;2024-01-15T19:04:23;16.03;;;10.87;;
82396;SDS011;72034;51.426;7.534;2024-01-15T19:06:49;14.17;;;11.10;;
82396;SDS011;72034;51.426;7.534;2024-01-15T19:09:14;16.00;;;9.50;;
82396;SDS011;72034;51.426;7.534;2024-01-15T19:11:45;11.37;;;8.87;;
82396;SDS011;72034;51.426;7.534;2024-01-15T19:14:21;13.60;;;9.53;;
82396;SDS011;72034;51.426;7.534;2024-01-15T19:16:49;15.83;;;9.60;;
82396;SDS011;72034;51.426;7.534;2024-01-15T19:19:33;17.53;;;10.50;;
82396;SDS011;72034;51.426;7.534;2024-01-15T19:22:04;12.13;;;9.67;;
82396;SDS011;72034;51.426;7.534;2024-01-15T19:24:30;15.27;;;10.40;;
82396;SDS011;72034;51.426;7.534;2024-01-15T19:27:15;16.37;;;11.97;;
82396;SDS011;72034;51.426;7.534;2024-01-15T19:30:18;15.23;;;11.00;;
82396;SDS011;72034;51.426;7.534;2024-01-15T19:32:57;16.10;;;10.93;;
82396;SDS011;72034;51.426;7.534;2024-01-15T19:35:48;15.97;;;10.13;;
82396;SDS011;72034;51.426;7.534;2024-01-15T19:38:16;13.87;;;10.43;;
82396;SDS011;72034;51.426;7.534;2024-01-15T19:40:53;15.27;;;10.60;;
82396;SDS011;72034;51.426;7.534;2024-01-15T19:43:30;11.10;;;7.83;;
82396;SDS011;72034;51.426;7.534;2024-01-15T19:49:08;14.60;;;9.60;;
82396;SDS011;72034;51.426;7.534;2024-01-15T19:51:44;16.83;;;9.57;;
82396;SDS011;72034;51.426;7.534;2024-01-15T19:54:41;18.20;;;9.13;;
82396;SDS011;72034;51.426;7.534;2024-01-15T19:57:11;15.47;;;9.03;;
82396;SDS011;72034;51.426;7.534;2024-01-15T19:59:47;15.07;;;9.17;;
82396;SDS011;72034;51.426;7.534;2024-01-15T20:02:20;19.43;;;10.33;;
82396;SDS011;72034;51.426;7.534;2024-01-15T20:04:54;10.50;;;8.27;;
82396;SDS011;72034;51.426;7.534;2024-01-15T20:07:20;15.27;;;9.47;;
82396;SDS011;72034;51.426;7.534;2024-01-15T20:09:48;17.77;;;11.27;;
82396;SDS011;72034;51.426;7.534;2024-01-15T20:12:16;13.23;;;9.47;;
82396;SDS011;72034;51.426;7.534;2024-01-15T20:14:50;13.13;;;8.93;;
82396;SDS011;72034;51.426;7.534;2024-01-15T20:17:18;20.03;;;9.40;;
82396;SDS011;72034;51.426;7.534;2024-01-15T20:19:43;14.60;;;9.27;;
82396;SDS011;72034;51.426;7.534;2024-01-15T20:22:11;15.57;;;9.37;;
82396;SDS011;72034;51.426;7.534;2024-01-15T20:24:38;17.17;;;8.83;;
82396;SDS011;72034;51.426;7.534;2024-01-15T20:27:04;10.03;;;7.10;;
82396;SDS011;72034;51.426;7.534;2024-01-15T20:29:33;13.40;;;7.93;;
82396;SDS011;72034;51.426;7.534;2024-01-15T20:31:58;14.43;;;7.97;;
82396;SDS011;72034;51.426;7.534;2024-01-15T20:34:23;15.27;;;8.57;;
82396;SDS011;72034;51.426;7.534;2024-01-15T20:36:49;13.30;;;8.20;;
82396;SDS011;72034;51.426;7.534;2024-01-15T20:39:17;19.33;;;9.10;;
82396;SDS011;72034;51.426;7.534;2024-01-15T20:41:45;15.03;;;9.13;;
82396;SDS011;72034;51.426;7.534;2024-01-15T20:44:11;16.70;;;10.13;;
82396;SDS011;72034;51.426;7.534;2024-01-15T20:46:39;13.43;;;9.20;;
82396;SDS011;72034;51.426;7.534;2024-01-15T20:49:15;12.10;;;9.27;;
82396;SDS011;72034;51.426;7.534;2024-01-15T20:51:50;17.10;;;9.80;;
82396;SDS011;72034;51.426;7.534;2024-01-15T20:54:16;12.90;;;9.30;;